Time;durP1;ratioP1;P1;durP2;ratioP2;P2;SDS_P1;SDS_P2;PMS_P1;PMS_P2;Temp;Humidity;BMP_temperature;BMP_pressure;BME280_temperature;BME280_humidity;BME280_pressure;Samples;Min_cycle;Max_cycle;Signal;HPM_P1;HPM_P2
2022/07/09 00:00:06;;;;;;;;;;;;;;;21.48;54.23;99210.25;5014120;28;807;-62
2022/07/09 00:02:34;;;;;;;;;;;;;;;21.50;54.22;99210.53;5013987;28;1969;-63
2022/07/09 00:05:01;;;;;;;;;;;;;;;21.55;53.71;99204.97;5014023;28;851;-63
2022/07/09 00:07:27;;;;;;;;;;;;;;;21.59;53.79;99201.94;5013909;28;815;-63
2022/07/09 00:09:53;;;;;;;;;;;;;;;21.68;53.40;99207.44;5013937;28;847;-63
2022/07/09 00:12:19;;;;;;;;;;;;;;;21.77;53.12;99206.50;5013795;28;796;-63
2022/07/09 00:14:46;;;;;;;;;;;;;;;21.77;53.19;99206.50;5013872;28;842;-63
2022/07/09 00:17:13;;;;;;;;;;;;;;;21.71;53.48;99206.44;5013605;28;807;-63
2022/07/09 00:19:40;;;;;;;;;;;;;;;21.67;53.22;99205.88;5013757;28;874;-62
2022/07/09 00:22:21;;;;;;;;;;;;;;;21.63;53.47;99210.16;5013793;28;815;-63
2022/07/09 00:24:48;;;;;;;;;;;;;;;21.66;53.37;99201.53;5013569;28;1961;-63
2022/07/09 00:27:14;;;;;;;;;;;;;;;21.66;53.30;99206.34;5013621;28;863;-63
2022/07/09 00:29:41;;;;;;;;;;;;;;;21.66;53.16;99206.34;5013543;28;886;-63
2022/07/09 00:32:08;;;;;;;;;;;;;;;21.62;53.64;99198.16;5014006;28;961;-64
2022/07/09 00:34:34;;;;;;;;;;;;;;;21.62;53.46;99200.97;5013256;28;819;-64
2022/07/09 00:37:15;;;;;;;;;;;;;;;21.60;53.29;99195.81;5013539;28;870;-63
2022/07/09 00:39:41;;;;;;;;;;;;;;;21.61;53.06;99196.59;5013634;28;881;-64
2022/07/09 00:42:10;;;;;;;;;;;;;;;21.59;53.26;99199.13;5013592;28;838;-63
2022/07/09 00:44:37;;;;;;;;;;;;;;;21.59;53.07;99197.09;5013911;28;1918;-63
2022/07/09 00:47:07;;;;;;;;;;;;;;;21.58;53.28;99201.16;5013143;28;1308;-63
2022/07/09 00:49:39;;;;;;;;;;;;;;;21.54;53.36;99194.22;5013183;28;811;-62
2022/07/09 00:52:07;;;;;;;;;;;;;;;21.52;53.31;99196.75;5013098;28;830;-63
2022/07/09 00:54:34;;;;;;;;;;;;;;;21.45;53.81;99200.75;5013099;28;803;-63
2022/07/09 00:57:04;;;;;;;;;;;;;;;21.35;53.98;99202.13;5012964;28;823;-63
2022/07/09 00:59:30;;;;;;;;;;;;;;;21.27;54.24;99198.97;5013031;28;795;-63
2022/07/09 01:01:57;;;;;;;;;;;;;;;21.24;54.46;99202.00;5012956;28;887;-63
2022/07/09 01:04:23;;;;;;;;;;;;;;;21.26;54.51;99196.66;5012760;28;1913;-63
2022/07/09 01:06:50;;;;;;;;;;;;;;;21.29;54.41;99199.25;5012878;28;820;-62
2022/07/09 01:09:16;;;;;;;;;;;;;;;21.33;54.55;99199.03;5012804;28;894;-64
2022/07/09 01:11:43;;;;;;;;;;;;;;;21.33;54.40;99197.00;5012779;28;859;-63
2022/07/09 01:14:10;;;;;;;;;;;;;;;21.36;54.50;99196.03;4995099;28;1283;-63
2022/07/09 01:16:39;;;;;;;;;;;;;;;21.37;54.34;99188.34;4995029;28;1331;-63
2022/07/09 01:19:08;;;;;;;;;;;;;;;21.36;54.47;99193.22;5012582;28;849;-63
2022/07/09 01:21:35;;;;;;;;;;;;;;;21.37;54.15;99193.97;5012869;28;780;-64
2022/07/09 01:24:05;;;;;;;;;;;;;;;21.36;54.25;99190.41;5012515;28;1954;-62
2022/07/09 01:26:32;;;;;;;;;;;;;;;21.33;54.27;99188.56;5012517;28;846;-62
2022/07/09 01:28:58;;;;;;;;;;;;;;;21.30;54.21;99189.56;5012588;28;834;-63
2022/07/09 01:31:25;;;;;;;;;;;;;;;21.30;54.19;99186.75;5012688;28;951;-63
2022/07/09 01:33:51;;;;;;;;;;;;;;;21.32;54.32;99189.06;5012251;28;1105;-63
2022/07/09 01:36:19;;;;;;;;;;;;;;;21.35;54.00;99179.66;5012398;28;806;-63
2022/07/09 01:38:46;;;;;;;;;;;;;;;21.38;53.81;99182.25;5012343;28;901;-63
2022/07/09 01:41:13;;;;;;;;;;;;;;;21.38;53.74;99182.25;5012263;28;870;-63
2022/07/09 01:43:40;;;;;;;;;;;;;;;21.35;53.88;99182.44;5012184;28;1894;-63
2022/07/09 01:46:05;;;;;;;;;;;;;;;21.33;53.68;99185.75;5011285;28;1199;-63
2022/07/09 10:31:54;;;;;;;;;;;;;;;29.32;38.17;99094.66;5527115;23;1681;-74
2022/07/09 10:34:34;;;;;;;;;;;;;;;29.82;37.97;99094.84;5011861;28;811;-70
2022/07/09 10:37:06;;;;;;;;;;;;;;;29.37;38.44;99108.00;5011663;28;886;-68
2022/07/09 10:49:26;;;;;;;;;;;;;;;28.58;39.63;99097.41;5011636;28;656;-69
2022/07/09 10:52:02;;;;;;;;;;;;;;;28.00;39.39;99101.75;4993935;28;1424;-73
2022/07/09 10:54:29;;;;;;;;;;;;;;;27.56;38.86;99109.59;5011583;28;882;-68
2022/07/09 10:56:56;;;;;;;;;;;;;;;28.13;39.91;99103.84;4993973;28;1526;-69
2022/07/09 10:59:23;;;;;;;;;;;;;;;29.22;38.29;99105.72;5011532;28;882;-68
2022/07/09 11:01:51;;;;;;;;;;;;;;;29.31;37.16;99096.72;4993840;28;1277;-71
2022/07/09 11:04:33;;;;;;;;;;;;;;;29.01;37.33;99102.75;5011410;28;1951;-71
2022/07/09 11:07:00;;;;;;;;;;;;;;;29.57;36.64;99097.22;5011300;28;875;-73
2022/07/09 11:09:30;;;;;;;;;;;;;;;29.82;36.84;99098.47;4993472;28;1256;-71
2022/07/09 11:11:57;;;;;;;;;;;;;;;30.04;36.48;99105.72;5011446;28;843;-73
2022/07/09 11:14:25;;;;;;;;;;;;;;;29.68;36.72;99086.34;4994120;28;1043;-68
2022/07/09 11:17:00;;;;;;;;;;;;;;;29.08;35.76;99098.47;5011386;28;873;-70
2022/07/09 11:19:39;;;;;;;;;;;;;;;29.18;36.86;99090.31;5014365;28;807;-74
2022/07/09 11:22:11;;;;;;;;;;;;;;;30.09;35.43;99090.56;5014883;28;890;-73
2022/07/09 11:24:44;;;;;;;;;;;;;;;30.31;34.65;99091.34;5014808;28;1871;-69
2022/07/09 11:27:15;;;;;;;;;;;;;;;30.96;33.42;99088.56;5015028;28;823;-73
2022/07/09 11:39:40;;;;;;;;;;;;;;;30.47;33.55;99083.66;5010404;28;1351;-70
2022/07/09 11:45:46;;;;;;;;;;;;;;;29.30;35.20;99086.66;5014702;28;1922;-73
2022/07/09 11:54:31;;;;;;;;;;;;;;;29.98;35.64;99084.34;5014394;28;629;-70
2022/07/09 11:57:02;;;;;;;;;;;;;;;30.57;34.22;99093.22;5014364;28;971;-74
2022/07/09 11:59:33;;;;;;;;;;;;;;;30.99;33.80;99070.31;5014036;28;1414;-69
2022/07/09 12:05:04;;;;;;;;;;;;;;;30.92;33.53;99071.81;5014167;28;1910;-68
2022/07/09 12:07:31;;;;;;;;;;;;;;;30.19;34.30;99068.03;5014067;28;858;-70
2022/07/09 12:10:02;;;;;;;;;;;;;;;29.57;35.34;99060.19;5014036;28;914;-71
2022/07/09 12:12:34;;;;;;;;;;;;;;;29.08;36.53;99072.88;4996467;28;1595;-72
2022/07/09 12:15:08;;;;;;;;;;;;;;;28.66;36.62;99070.63;5013895;28;854;-74
2022/07/09 12:20:37;;;;;;;;;;;;;;;28.44;36.71;99063.28;5014050;28;688;-69
2022/07/09 12:23:24;;;;;;;;;;;;;;;28.55;36.76;99059.47;5013701;28;1953;-70
2022/07/09 12:25:53;;;;;;;;;;;;;;;28.52;36.96;99060.56;5013799;28;877;-68
2022/07/09 12:28:33;;;;;;;;;;;;;;;28.40;37.43;99053.50;5013814;28;857;-72
2022/07/09 12:30:59;;;;;;;;;;;;;;;28.48;36.88;99051.56;5013372;28;1031;-69
2022/07/09 12:33:31;;;;;;;;;;;;;;;28.39;36.95;99049.16;4996248;28;1350;-69
2022/07/09 12:36:06;;;;;;;;;;;;;;;28.47;37.41;99056.47;5013578;28;889;-71
2022/07/09 12:38:32;;;;;;;;;;;;;;;28.65;37.81;99054.88;5013879;28;862;-73
2022/07/09 12:40:59;;;;;;;;;;;;;;;28.74;37.58;99044.38;5013474;28;1336;-69
2022/07/09 12:43:26;;;;;;;;;;;;;;;28.61;36.00;99045.13;5013945;28;1977;-71
2022/07/09 12:45:53;;;;;;;;;;;;;;;28.67;36.36;99045.81;4996052;28;1284;-69
2022/07/09 12:48:25;;;;;;;;;;;;;;;29.89;35.68;99040.03;5013602;28;1166;-71
2022/07/09 12:50:51;;;;;;;;;;;;;;;31.63;33.41;99039.34;5013410;28;842;-72
2022/07/09 12:53:24;;;;;;;;;;;;;;;31.53;32.59;99019.91;4996039;28;1340;-71
2022/07/09 12:55:56;;;;;;;;;;;;;;;30.79;32.14;99029.13;4995735;28;1104;-68
2022/07/09 13:10:39;;;;;;;;;;;;;;;29.30;35.50;99023.31;5013274;28;673;-74
2022/07/09 13:25:23;;;;;;;;;;;;;;;29.02;36.29;99012.50;5013048;28;1871;-71
2022/07/09 13:27:50;;;;;;;;;;;;;;;29.31;36.01;99002.81;5012505;28;1117;-68
2022/07/09 13:30:34;;;;;;;;;;;;;;;28.92;36.47;99007.28;5012606;28;1032;-69
2022/07/09 13:33:03;;;;;;;;;;;;;;;28.47;36.20;99005.31;5012500;28;888;-73
2022/07/09 13:35:29;;;;;;;;;;;;;;;28.73;36.22;99006.66;5012568;28;881;-72
2022/07/09 13:37:56;;;;;;;;;;;;;;;28.67;36.44;99015.28;5012493;28;852;-70
2022/07/09 13:40:22;;;;;;;;;;;;;;;28.39;36.56;99006.53;5012247;28;1287;-70
2022/07/09 13:42:49;;;;;;;;;;;;;;;28.07;36.67;99010.22;4994426;28;1292;-69
2022/07/09 13:45:16;;;;;;;;;;;;;;;27.89;37.15;99014.66;5012293;28;1910;-71
2022/07/09 13:47:43;;;;;;;;;;;;;;;27.88;37.34;99013.88;5012431;28;830;-70
2022/07/09 13:50:09;;;;;;;;;;;;;;;28.07;38.16;99013.81;4994670;28;1291;-72
2022/07/09 13:52:36;;;;;;;;;;;;;;;28.35;37.72;99003.25;5012267;28;842;-69
2022/07/09 13:55:32;;;;;;;;;;;;;;;29.72;35.85;99011.97;5012254;28;807;-77
2022/07/09 13:57:59;;;;;;;;;;;;;;;31.30;33.34;99008.41;5012330;28;886;-73
2022/07/09 14:00:25;;;;;;;;;;;;;;;31.44;32.62;99005.44;5012694;28;859;-69
2022/07/09 14:02:52;;;;;;;;;;;;;;;31.05;32.11;98999.59;5012691;28;842;-71
2022/07/09 14:05:22;;;;;;;;;;;;;;;30.36;33.80;99004.91;5012831;28;1886;-72
2022/07/09 14:07:49;;;;;;;;;;;;;;;29.88;34.96;99010.78;4993947;28;1308;-70
2022/07/09 14:13:30;;;;;;;;;;;;;;;30.05;33.80;99010.38;5012157;28;606;-73
2022/07/09 14:16:00;;;;;;;;;;;;;;;29.28;35.07;99018.16;4994399;28;1141;-73
2022/07/09 14:18:35;;;;;;;;;;;;;;;29.31;35.00;99005.66;4994284;28;1236;-73
2022/07/09 14:30:45;;;;;;;;;;;;;;;28.88;35.86;99003.25;5012525;28;960;-67
2022/07/09 14:33:21;;;;;;;;;;;;;;;28.69;35.85;98997.69;5011894;28;886;-71
2022/07/09 14:35:58;;;;;;;;;;;;;;;28.46;36.54;98995.28;5011828;28;921;-69
2022/07/09 14:38:24;;;;;;;;;;;;;;;28.35;37.06;98991.88;5011806;28;822;-71
2022/07/09 14:40:51;;;;;;;;;;;;;;;28.36;36.55;98990.56;5011507;28;1425;-68
2022/07/09 14:43:19;;;;;;;;;;;;;;;28.52;36.08;98980.22;5011580;28;1914;-69
2022/07/09 14:45:56;;;;;;;;;;;;;;;28.65;35.99;98985.88;5011676;28;819;-71
2022/07/09 14:48:22;;;;;;;;;;;;;;;28.73;35.69;98986.00;5012050;28;756;-72
2022/07/09 14:51:15;;;;;;;;;;;;;;;28.75;35.87;98989.06;5011712;28;819;-70
2022/07/09 14:53:42;;;;;;;;;;;;;;;28.89;35.45;98997.00;5014731;28;830;-70
2022/07/09 14:59:26;;;;;;;;;;;;;;;28.96;35.32;98989.88;5015448;28;633;-70
2022/07/09 15:01:52;;;;;;;;;;;;;;;28.91;35.68;98988.69;5015946;28;771;-72
2022/07/09 15:04:19;;;;;;;;;;;;;;;28.83;35.10;98993.53;4997639;28;1898;-71
2022/07/09 15:06:45;;;;;;;;;;;;;;;28.66;35.62;98998.81;5015328;28;799;-74
2022/07/09 15:09:20;;;;;;;;;;;;;;;28.44;35.72;98997.13;5015488;28;807;-69
2022/07/09 15:11:48;;;;;;;;;;;;;;;28.42;36.50;98996.91;4997934;28;1382;-70
2022/07/09 15:14:21;;;;;;;;;;;;;;;28.19;36.47;98993.75;5015133;28;767;-73
2022/07/09 15:16:48;;;;;;;;;;;;;;;28.07;37.17;98999.59;4997453;28;960;-70
2022/07/09 15:31:54;;;;;;;;;;;;;;;27.33;38.00;98989.97;5015168;28;991;-74
2022/07/09 15:34:25;;;;;;;;;;;;;;;27.20;37.64;98991.41;5015051;28;996;-73
2022/07/09 15:36:55;;;;;;;;;;;;;;;27.13;38.21;98983.53;5014753;28;878;-71
2022/07/09 15:39:21;;;;;;;;;;;;;;;27.10;37.90;98990.28;4995309;28;1345;-70
2022/07/09 15:41:54;;;;;;;;;;;;;;;27.03;37.87;98983.13;5014477;28;1397;-71
2022/07/09 15:44:23;;;;;;;;;;;;;;;26.96;37.83;98983.75;5014707;28;1980;-78
2022/07/09 15:46:49;;;;;;;;;;;;;;;26.94;38.05;98986.38;5014644;28;1031;-71
2022/07/09 15:49:16;;;;;;;;;;;;;;;26.94;38.11;98988.44;4997075;28;1216;-69
2022/07/09 15:51:42;;;;;;;;;;;;;;;26.91;38.32;98993.13;5014748;28;818;-74
2022/07/09 15:57:15;;;;;;;;;;;;;;;26.82;38.60;98993.47;5014535;28;601;-76
2022/07/09 15:59:44;;;;;;;;;;;;;;;26.77;38.21;99008.50;5014367;28;811;-74
2022/07/09 16:02:12;;;;;;;;;;;;;;;26.74;38.36;99006.75;5014254;28;1032;-69
2022/07/09 16:04:39;;;;;;;;;;;;;;;26.72;37.93;99006.50;5013222;28;1898;-70
2022/07/09 16:07:06;;;;;;;;;;;;;;;26.69;38.46;99014.00;5014164;28;799;-68
2022/07/09 16:09:31;;;;;;;;;;;;;;;26.67;38.50;99017.38;5014041;28;881;-69
2022/07/09 16:14:45;;;;;;;;;;;;;;;26.52;39.99;99038.91;5013962;28;609;-74
2022/07/09 16:29:25;;;;;;;;;;;;;;;24.58;50.84;99056.88;5013956;28;680;-70
2022/07/09 16:31:51;;;;;;;;;;;;;;;24.31;51.82;99049.97;4996293;28;1153;-69
2022/07/09 16:37:51;;;;;;;;;;;;;;;23.88;53.40;99055.91;5013675;28;744;-70
2022/07/09 16:40:17;;;;;;;;;;;;;;;23.76;53.99;99063.59;5013333;28;1301;-68
2022/07/09 16:42:48;;;;;;;;;;;;;;;23.60;54.85;99054.59;5013479;28;869;-68
2022/07/09 16:48:16;;;;;;;;;;;;;;;23.27;56.06;99066.56;5013434;28;673;-69
2022/07/09 16:50:42;;;;;;;;;;;;;;;23.19;56.11;99063.47;5013274;28;849;-68
2022/07/09 16:53:10;;;;;;;;;;;;;;;23.13;56.66;99067.53;5013253;28;897;-68
2022/07/09 16:55:36;;;;;;;;;;;;;;;23.06;57.21;99059.56;5013085;28;827;-68
2022/07/09 16:58:04;;;;;;;;;;;;;;;22.99;57.14;99057.97;5013142;28;913;-67
2022/07/09 17:00:32;;;;;;;;;;;;;;;22.98;57.19;99068.50;4995448;28;1303;-68
2022/07/09 17:03:00;;;;;;;;;;;;;;;22.99;57.15;99067.19;5013110;28;811;-68
2022/07/09 17:05:26;;;;;;;;;;;;;;;23.00;57.56;99065.16;5012852;28;1941;-69
2022/07/09 17:08:13;;;;;;;;;;;;;;;23.03;57.63;99070.56;5013282;28;866;-69
2022/07/09 17:11:03;;;;;;;;;;;;;;;23.04;57.42;99068.53;5012940;28;834;-68
2022/07/09 17:13:30;;;;;;;;;;;;;;;22.98;57.68;99074.13;4995278;28;1256;-68
2022/07/09 17:15:57;;;;;;;;;;;;;;;22.93;58.24;99074.09;5012823;28;799;-68
2022/07/09 17:18:23;;;;;;;;;;;;;;;22.86;58.49;99080.22;5012738;28;1015;-68
2022/07/09 17:20:53;;;;;;;;;;;;;;;22.79;58.59;99082.22;5012735;28;909;-67
2022/07/09 17:23:20;;;;;;;;;;;;;;;22.74;59.06;99085.00;5012592;28;1886;-68
2022/07/09 17:25:47;;;;;;;;;;;;;;;22.69;59.35;99085.75;5012910;28;862;-68
2022/07/09 17:28:14;;;;;;;;;;;;;;;22.68;59.35;99089.84;5012554;28;838;-68
2022/07/09 17:30:41;;;;;;;;;;;;;;;22.63;59.79;99089.28;5012716;28;941;-69
2022/07/09 17:33:07;;;;;;;;;;;;;;;22.61;59.59;99091.09;4994797;28;1204;-69
2022/07/09 17:35:33;;;;;;;;;;;;;;;22.60;59.90;99098.75;5012700;28;803;-69
2022/07/09 17:38:00;;;;;;;;;;;;;;;22.57;60.06;99099.00;5012388;28;866;-69
2022/07/09 17:40:27;;;;;;;;;;;;;;;22.55;60.29;99101.53;5012173;28;1339;-68
2022/07/09 17:42:53;;;;;;;;;;;;;;;22.50;60.59;99105.09;5012392;28;810;-68
2022/07/09 17:45:19;;;;;;;;;;;;;;;22.42;60.99;99108.38;5012417;28;1980;-68
2022/07/09 17:47:46;;;;;;;;;;;;;;;22.37;61.55;99105.53;5012240;28;943;-68
2022/07/09 17:50:12;;;;;;;;;;;;;;;22.28;61.80;99105.72;5012320;28;812;-68
2022/07/09 17:52:40;;;;;;;;;;;;;;;22.20;62.40;99100.50;5012202;28;978;-68
2022/07/09 17:55:27;;;;;;;;;;;;;;;22.14;62.66;99101.72;5012103;28;854;-68
2022/07/09 17:57:55;;;;;;;;;;;;;;;22.08;63.17;99106.53;5012222;28;843;-68
2022/07/09 18:00:26;;;;;;;;;;;;;;;22.06;62.96;99104.22;5012124;28;844;-68
2022/07/09 18:02:53;;;;;;;;;;;;;;;22.11;62.61;99111.94;5012060;28;853;-68
2022/07/09 18:05:19;;;;;;;;;;;;;;;22.17;62.21;99109.97;5012157;28;1961;-69
2022/07/09 18:07:57;;;;;;;;;;;;;;;22.14;62.32;99110.94;5012088;28;861;-70
2022/07/09 18:10:24;;;;;;;;;;;;;;;22.09;62.66;99122.16;5011902;28;931;-69
2022/07/09 18:12:51;;;;;;;;;;;;;;;22.01;62.77;99124.66;5012031;28;889;-69
2022/07/09 18:15:17;;;;;;;;;;;;;;;21.95;63.10;99126.63;5011941;28;890;-69
2022/07/09 18:17:43;;;;;;;;;;;;;;;21.95;62.76;99129.44;5009542;28;1328;-69
2022/07/09 18:20:10;;;;;;;;;;;;;;;21.93;63.01;99120.72;5011889;28;831;-69
2022/07/09 18:22:38;;;;;;;;;;;;;;;21.85;63.22;99119.63;5011882;28;897;-68
2022/07/09 18:25:05;;;;;;;;;;;;;;;21.77;63.23;99125.72;5011681;28;1949;-68
2022/07/09 18:27:32;;;;;;;;;;;;;;;21.76;62.81;99132.63;5011393;28;799;-68
2022/07/09 18:33:02;;;;;;;;;;;;;;;21.85;61.58;99122.44;5011609;28;1130;-68
2022/07/09 18:35:29;;;;;;;;;;;;;;;22.02;60.04;99123.38;5011742;28;811;-68
2022/07/09 18:38:05;;;;;;;;;;;;;;;22.27;58.99;99118.22;5011776;28;842;-70
2022/07/09 18:40:35;;;;;;;;;;;;;;;22.21;59.20;99121.75;5011730;28;1279;-68
2022/07/09 18:43:02;;;;;;;;;;;;;;;22.13;59.32;99108.66;5011752;28;885;-68
2022/07/09 18:45:29;;;;;;;;;;;;;;;22.15;58.64;99111.72;5011541;28;1973;-68
2022/07/09 18:47:56;;;;;;;;;;;;;;;22.29;57.70;99112.88;5011544;28;873;-68
2022/07/09 18:50:22;;;;;;;;;;;;;;;22.35;57.31;99117.28;5011655;28;823;-68
2022/07/09 18:52:49;;;;;;;;;;;;;;;22.38;57.04;99119.09;5011458;28;850;-68
2022/07/09 18:55:16;;;;;;;;;;;;;;;22.40;57.11;99110.94;5011592;28;800;-68
2022/07/09 18:57:42;;;;;;;;;;;;;;;22.34;57.17;99126.22;5011601;28;845;-68
2022/07/09 19:00:10;;;;;;;;;;;;;;;22.23;57.45;99121.28;5011538;28;894;-68
2022/07/09 19:02:40;;;;;;;;;;;;;;;22.31;56.74;99127.22;5011403;28;921;-69
2022/07/09 19:05:14;;;;;;;;;;;;;;;22.40;56.64;99124.22;5011425;28;1886;-68
2022/07/09 19:07:41;;;;;;;;;;;;;;;22.49;56.06;99140.16;5011439;28;811;-69
2022/07/09 19:10:08;;;;;;;;;;;;;;;22.49;55.76;99131.69;5011392;28;810;-69
2022/07/09 19:12:36;;;;;;;;;;;;;;;22.42;56.25;99124.50;5011377;28;776;-68
2022/07/09 19:15:03;;;;;;;;;;;;;;;22.40;55.89;99133.44;5011367;28;826;-69
2022/07/09 19:17:29;;;;;;;;;;;;;;;22.45;55.61;99129.13;5011290;28;834;-69
2022/07/09 19:19:55;;;;;;;;;;;;;;;22.47;55.21;99137.06;4993655;28;1240;-68
2022/07/09 19:22:21;;;;;;;;;;;;;;;22.54;54.81;99131.75;5011223;28;874;-68
2022/07/09 19:24:48;;;;;;;;;;;;;;;22.58;54.80;99137.91;5011123;28;1890;-69
2022/07/09 19:27:14;;;;;;;;;;;;;;;22.54;54.52;99136.63;4993716;28;1609;-69
2022/07/09 19:29:40;;;;;;;;;;;;;;;22.50;54.88;99141.69;5011165;28;807;-70
2022/07/09 19:34:52;;;;;;;;;;;;;;;22.45;54.87;99129.13;5011178;28;629;-68
2022/07/09 19:37:19;;;;;;;;;;;;;;;22.45;54.33;99126.31;5011118;28;823;-69
2022/07/09 19:39:46;;;;;;;;;;;;;;;22.49;54.31;99129.69;5012555;28;874;-67
2022/07/09 19:42:13;;;;;;;;;;;;;;;22.53;53.81;99138.66;5014446;28;1458;-68
2022/07/09 19:44:39;;;;;;;;;;;;;;;22.55;53.57;99126.88;5014461;28;1914;-68
2022/07/09 19:47:06;;;;;;;;;;;;;;;22.52;53.92;99127.91;5014508;28;854;-68
2022/07/09 19:50:10;;;;;;;;;;;;;;;22.47;53.67;99122.97;5014562;28;795;-68
2022/07/09 19:52:37;;;;;;;;;;;;;;;22.42;54.19;99135.75;5014411;28;940;-68
2022/07/09 19:55:04;;;;;;;;;;;;;;;22.39;53.89;99133.94;5014469;28;850;-67
2022/07/09 19:57:31;;;;;;;;;;;;;;;22.43;53.53;99142.94;5014329;28;856;-68
2022/07/09 19:59:59;;;;;;;;;;;;;;;22.45;53.63;99137.56;5014499;28;858;-67
2022/07/09 20:14:38;;;;;;;;;;;;;;;22.34;53.67;99143.09;5014317;28;680;-68
2022/07/09 20:17:05;;;;;;;;;;;;;;;22.35;53.60;99144.66;5013923;28;796;-68
2022/07/09 20:19:31;;;;;;;;;;;;;;;22.26;54.00;99134.34;5014025;28;897;-68
2022/07/09 20:21:58;;;;;;;;;;;;;;;22.28;54.04;99134.63;5013763;28;823;-68
2022/07/09 20:24:25;;;;;;;;;;;;;;;22.38;53.78;99135.19;5013746;28;2037;-68
2022/07/09 20:26:56;;;;;;;;;;;;;;;22.41;53.73;99132.16;5013882;28;814;-69
2022/07/09 20:29:23;;;;;;;;;;;;;;;22.40;53.45;99127.03;5013783;28;890;-68
2022/07/09 20:31:51;;;;;;;;;;;;;;;22.43;53.31;99124.00;5013650;28;811;-69
2022/07/09 20:34:18;;;;;;;;;;;;;;;22.42;53.67;99121.66;5013694;28;783;-69
2022/07/09 20:36:45;;;;;;;;;;;;;;;22.35;53.55;99116.50;5013735;28;815;-68
2022/07/09 20:39:11;;;;;;;;;;;;;;;22.35;53.40;99122.91;5013586;28;902;-67
2022/07/09 20:41:38;;;;;;;;;;;;;;;22.35;53.63;99125.72;5013334;28;1312;-68
2022/07/09 20:44:04;;;;;;;;;;;;;;;22.28;53.81;99120.56;5013433;28;1969;-69
2022/07/09 20:46:31;;;;;;;;;;;;;;;22.23;53.76;99132.53;5013385;28;846;-69
2022/07/09 20:58:14;;;;;;;;;;;;;;;22.05;54.83;99146.94;5013529;28;665;-69
2022/07/09 21:00:44;;;;;;;;;;;;;;;22.11;54.52;99156.22;5013122;28;914;-69
2022/07/09 21:03:10;;;;;;;;;;;;;;;21.99;55.60;99153.28;5013032;28;791;-70
2022/07/09 21:05:37;;;;;;;;;;;;;;;21.50;57.99;99162.72;5012923;28;1898;-70
2022/07/09 21:08:10;;;;;;;;;;;;;;;20.41;63.99;99156.06;5013289;28;830;-69
2022/07/09 21:10:36;;;;;;;;;;;;;;;19.45;70.71;99139.56;5012959;28;867;-69
2022/07/09 21:13:03;;;;;;;;;;;;;;;18.69;77.39;99137.72;5013123;28;851;-70
2022/07/09 21:15:30;;;;;;;;;;;;;;;17.92;83.60;99121.34;4995228;28;1184;-73
2022/07/09 21:30:12;;;;;;;;;;;;;;;17.01;100.00;99106.97;5013143;28;669;-75
2022/07/09 21:32:42;;;;;;;;;;;;;;;16.99;100.00;99108.66;5013556;28;831;-80
2022/07/09 21:35:09;;;;;;;;;;;;;;;16.96;100.00;99112.38;5014233;28;918;-72
2022/07/09 21:37:36;;;;;;;;;;;;;;;17.07;100.00;99102.31;5013582;28;819;-76
2022/07/09 21:40:16;;;;;;;;;;;;;;;17.35;97.39;99100.28;5013339;28;1243;-74
2022/07/09 21:42:53;;;;;;;;;;;;;;;17.65;94.30;99099.81;4996070;28;1427;-77
2022/07/09 21:45:22;;;;;;;;;;;;;;;17.86;91.07;99109.25;4996493;28;1906;-73
2022/07/09 21:47:56;;;;;;;;;;;;;;;18.10;88.45;99093.34;4995098;28;1415;-75
2022/07/09 21:50:25;;;;;;;;;;;;;;;18.40;86.29;99087.19;5013138;28;879;-76
2022/07/09 21:52:52;;;;;;;;;;;;;;;18.56;85.51;99093.16;4994721;28;1206;-74
2022/07/09 21:55:18;;;;;;;;;;;;;;;18.63;85.03;99102.47;5012266;28;865;-72
2022/07/09 21:57:44;;;;;;;;;;;;;;;18.70;84.29;99090.91;5012150;28;858;-68
2022/07/09 22:00:13;;;;;;;;;;;;;;;18.87;82.87;99094.09;5012141;28;921;-69
2022/07/09 22:02:40;;;;;;;;;;;;;;;19.08;81.04;99101.41;5011518;28;885;-69
2022/07/09 22:05:07;;;;;;;;;;;;;;;19.25;78.63;99101.75;5011964;28;1883;-68
2022/07/09 22:07:53;;;;;;;;;;;;;;;19.47;76.17;99095.03;5012103;28;831;-67
2022/07/09 22:10:19;;;;;;;;;;;;;;;19.70;74.67;99097.00;5011963;28;870;-68
2022/07/09 22:12:46;;;;;;;;;;;;;;;19.77;75.48;99116.25;5011937;28;807;-66
2022/07/09 22:15:12;;;;;;;;;;;;;;;19.45;78.10;99114.34;5011960;28;897;-68
2022/07/09 22:17:39;;;;;;;;;;;;;;;18.84;80.69;99111.81;5011879;28;819;-69
2022/07/09 22:20:06;;;;;;;;;;;;;;;18.21;83.83;99111.66;5011908;28;811;-69
2022/07/09 22:22:33;;;;;;;;;;;;;;;17.83;87.43;99121.38;5011895;28;877;-70
2022/07/09 22:25:00;;;;;;;;;;;;;;;17.47;91.24;99125.75;5011734;28;1882;-72
2022/07/09 22:27:27;;;;;;;;;;;;;;;17.07;95.01;99123.84;5011877;28;839;-74
2022/07/09 22:29:57;;;;;;;;;;;;;;;16.83;98.34;99120.88;4993802;28;1347;-78
2022/07/09 22:32:27;;;;;;;;;;;;;;;16.68;100.00;99115.06;4994686;28;1345;-75
2022/07/09 22:34:58;;;;;;;;;;;;;;;16.60;100.00;99124.97;4995193;28;1214;-75
2022/07/09 22:37:35;;;;;;;;;;;;;;;16.53;100.00;99121.22;4996087;28;1337;-77
2022/07/09 22:40:03;;;;;;;;;;;;;;;16.44;100.00;99118.41;4992991;28;1308;-72
2022/07/09 22:42:50;;;;;;;;;;;;;;;16.40;100.00;99114.97;4989957;28;1333;-72
2022/07/09 22:45:17;;;;;;;;;;;;;;;16.42;100.00;99114.53;5010206;28;1907;-71
2022/07/09 22:47:46;;;;;;;;;;;;;;;16.44;100.00;99112.06;5012769;28;859;-68
2022/07/09 22:50:15;;;;;;;;;;;;;;;16.46;100.00;99104.78;5012619;28;949;-73
2022/07/09 22:52:42;;;;;;;;;;;;;;;16.54;100.00;99097.69;5011970;28;961;-70
2022/07/09 22:55:11;;;;;;;;;;;;;;;16.80;100.00;99093.88;5011610;28;863;-70
2022/07/09 22:57:38;;;;;;;;;;;;;;;17.08;98.41;99084.31;5011671;28;804;-69
2022/07/09 23:00:05;;;;;;;;;;;;;;;17.35;95.13;99086.34;5011640;28;835;-70
2022/07/09 23:02:32;;;;;;;;;;;;;;;17.60;92.91;99081.63;4993901;28;1328;-70
2022/07/09 23:04:58;;;;;;;;;;;;;;;17.80;90.47;99085.97;5011413;28;1894;-73
2022/07/09 23:10:10;;;;;;;;;;;;;;;18.17;85.94;99078.25;5011422;28;733;-71
2022/07/09 23:12:36;;;;;;;;;;;;;;;18.34;84.64;99075.84;5011378;28;902;-70
2022/07/09 23:15:04;;;;;;;;;;;;;;;18.49;83.65;99087.91;5014787;28;873;-71
2022/07/09 23:17:34;;;;;;;;;;;;;;;18.60;83.19;99083.81;5015402;28;886;-71
2022/07/09 23:19:59;;;;;;;;;;;;;;;18.60;83.04;99081.00;4997339;28;1180;-70
2022/07/09 23:34:38;;;;;;;;;;;;;;;18.94;79.50;99066.50;5015118;28;625;-71
2022/07/09 23:37:04;;;;;;;;;;;;;;;18.98;79.16;99069.88;5014805;28;849;-73
2022/07/09 23:39:31;;;;;;;;;;;;;;;19.04;77.80;99069.25;5014679;28;889;-70
2022/07/09 23:41:58;;;;;;;;;;;;;;;19.17;77.19;99067.72;5014644;28;1267;-70
2022/07/09 23:44:28;;;;;;;;;;;;;;;19.21;76.70;99056.34;5014567;28;1918;-70
2022/07/09 23:46:54;;;;;;;;;;;;;;;19.21;77.34;99056.34;5014893;28;783;-70
2022/07/09 23:49:21;;;;;;;;;;;;;;;19.22;75.77;99054.31;5014448;28;818;-69
